Time;durP1;ratioP1;P1;durP2;ratioP2;P2;SDS_P1;SDS_P2;PMS_P1;PMS_P2;Temp;Humidity;BMP_temperature;BMP_pressure;BME280_temperature;BME280_humidity;BME280_pressure;Samples;Min_cycle;Max_cycle;Signal;HPM_P1;HPM_P2
2022/06/29 00:02:15;;;;;;;0.10;0.10;;;19.70;99.90;;;;;;4994703;28;20063;-75
2022/06/29 00:04:41;;;;;;;0.10;0.10;;;19.60;99.90;;;;;;4996029;28;20026;-74
2022/06/29 00:07:06;;;;;;;0.00;0.00;;;19.40;99.90;;;;;;4994676;28;20030;-74
2022/06/29 00:09:32;;;;;;;0.00;0.00;;;19.40;99.90;;;;;;4994518;28;20022;-75
2022/06/29 00:11:58;;;;;;;0.00;0.00;;;19.40;99.90;;;;;;4978482;28;20035;-74
2022/06/29 00:14:24;;;;;;;0.00;0.00;;;19.40;99.90;;;;;;4994788;28;20026;-75
2022/06/29 00:16:50;;;;;;;0.00;0.00;;;19.40;99.90;;;;;;4994705;28;20073;-75
2022/06/29 00:19:15;;;;;;;0.00;0.00;;;19.40;99.90;;;;;;4996160;28;20463;-75
2022/06/29 00:21:41;;;;;;;0.00;0.00;;;19.30;99.90;;;;;;4994208;28;20434;-75
2022/06/29 00:24:08;;;;;;;0.00;0.00;;;19.40;99.90;;;;;;4994534;28;20129;-74
2022/06/29 00:26:33;;;;;;;0.00;0.00;;;19.40;99.90;;;;;;4995695;28;20026;-75
2022/06/29 00:28:59;;;;;;;0.00;0.00;;;19.40;99.90;;;;;;4994188;28;20029;-73
2022/06/29 00:31:25;;;;;;;0.00;0.00;;;19.40;99.90;;;;;;4994334;28;20027;-75
2022/06/29 00:33:51;;;;;;;0.00;0.00;;;19.40;99.90;;;;;;4994429;28;20018;-74
2022/06/29 00:36:16;;;;;;;0.10;0.10;;;19.40;99.90;;;;;;4995619;28;20038;-75
2022/06/29 00:38:42;;;;;;;0.00;0.00;;;19.40;99.90;;;;;;4994430;28;20146;-74
2022/06/29 00:41:08;;;;;;;0.00;0.00;;;19.40;99.90;;;;;;4993988;28;20033;-74
2022/06/29 00:43:43;;;;;;;0.00;0.00;;;19.40;99.90;;;;;;4994051;28;20085;-74
2022/06/29 00:46:09;;;;;;;0.00;0.00;;;19.40;99.90;;;;;;4995040;28;20498;-75
2022/06/29 00:48:36;;;;;;;0.10;0.10;;;19.50;99.90;;;;;;4993944;28;20457;-75
2022/06/29 00:51:03;;;;;;;0.10;0.10;;;19.30;99.90;;;;;;4995153;28;20382;-74
2022/06/29 00:53:37;;;;;;;0.10;0.10;;;19.10;99.90;;;;;;4995275;28;20038;-75
2022/06/29 00:56:07;;;;;;;0.00;0.00;;;19.10;99.90;;;;;;4993931;28;20442;-74
2022/06/29 00:58:33;;;;;;;0.00;0.00;;;19.00;99.90;;;;;;4977545;28;20398;-74
2022/06/29 01:01:04;;;;;;;0.30;0.30;;;19.20;99.90;;;;;;4993605;28;20034;-75
2022/06/29 01:03:33;;;;;;;0.00;0.00;;;19.00;99.90;;;;;;4995094;28;20029;-74
2022/06/29 01:06:00;;;;;;;0.00;0.00;;;18.90;99.90;;;;;;4994713;28;20022;-75
2022/06/29 01:08:26;;;;;;;0.00;0.00;;;18.90;99.90;;;;;;4995010;28;20033;-74
2022/06/29 01:10:52;;;;;;;0.00;0.00;;;18.80;99.90;;;;;;4993457;28;20026;-73
2022/06/29 01:13:18;;;;;;;0.00;0.00;;;18.80;99.90;;;;;;4994756;28;20409;-74
2022/06/29 01:15:44;;;;;;;0.00;0.00;;;18.80;99.90;;;;;;4993569;28;20117;-75
2022/06/29 01:18:09;;;;;;;0.00;0.00;;;18.90;99.90;;;;;;4994654;28;20425;-75
2022/06/29 01:20:35;;;;;;;0.00;0.00;;;19.10;99.90;;;;;;4993098;28;20026;-75
2022/06/29 01:23:01;;;;;;;0.00;0.00;;;19.10;99.90;;;;;;4977041;28;20038;-75
2022/06/29 01:25:27;;;;;;;0.00;0.00;;;19.10;99.90;;;;;;4993102;28;20034;-74
2022/06/29 01:27:53;;;;;;;0.30;0.30;;;19.10;99.90;;;;;;4976900;28;20145;-74
2022/06/29 01:30:18;;;;;;;0.00;0.00;;;19.00;99.90;;;;;;4977238;28;20053;-74
2022/06/29 01:32:44;;;;;;;0.00;0.00;;;19.10;99.90;;;;;;4994421;28;20033;-74
2022/06/29 01:35:12;;;;;;;0.00;0.00;;;19.10;99.90;;;;;;4994532;28;20037;-75
2022/06/29 01:37:39;;;;;;;0.00;0.00;;;19.20;99.90;;;;;;4993077;28;20030;-75
2022/06/29 01:40:06;;;;;;;0.00;0.00;;;19.20;99.90;;;;;;4992993;28;20038;-74
2022/06/29 01:42:32;;;;;;;0.00;0.00;;;19.20;99.90;;;;;;4994049;28;20034;-75
2022/06/29 01:44:58;;;;;;;0.30;0.30;;;19.00;99.90;;;;;;4994176;28;20072;-74
2022/06/29 01:47:23;;;;;;;3.08;1.98;;;18.90;99.90;;;;;;4993118;28;20414;-75
2022/06/29 01:49:50;;;;;;;0.00;0.00;;;18.60;99.90;;;;;;4992626;28;20478;-74
2022/06/29 01:52:16;;;;;;;0.00;0.00;;;18.50;99.90;;;;;;4992819;28;20054;-75
2022/06/29 01:54:42;;;;;;;0.55;0.55;;;18.50;99.90;;;;;;4992617;28;20050;-74
2022/06/29 01:57:07;;;;;;;0.00;0.00;;;18.60;99.90;;;;;;4976380;28;20030;-75
2022/06/29 01:59:33;;;;;;;0.00;0.00;;;18.70;99.90;;;;;;4991595;28;20018;-74
2022/06/29 02:01:59;;;;;;;0.00;0.00;;;18.80;99.90;;;;;;4992568;28;20022;-74
2022/06/29 02:04:25;;;;;;;0.43;0.43;;;18.60;99.90;;;;;;4993692;28;20018;-75
2022/06/29 02:06:51;;;;;;;0.00;0.00;;;18.50;99.90;;;;;;4992051;28;20030;-72
2022/06/29 02:09:16;;;;;;;0.00;0.00;;;18.60;99.90;;;;;;4993402;28;20030;-75
2022/06/29 02:11:42;;;;;;;0.00;0.00;;;18.60;99.90;;;;;;4992361;28;20030;-74
2022/06/29 02:14:08;;;;;;;0.30;0.20;;;18.60;99.90;;;;;;4976311;28;20037;-75
2022/06/29 02:16:34;;;;;;;0.00;0.00;;;18.60;99.90;;;;;;4993489;28;20058;-75
2022/06/29 02:19:00;;;;;;;0.00;0.00;;;18.70;99.90;;;;;;4993252;28;20529;-75
2022/06/29 02:21:26;;;;;;;0.00;0.00;;;18.70;99.90;;;;;;4992444;28;20027;-75
2022/06/29 02:23:52;;;;;;;0.00;0.00;;;18.80;99.90;;;;;;4991939;28;20046;-74
2022/06/29 02:26:18;;;;;;;0.00;0.00;;;18.70;99.90;;;;;;4993198;28;20502;-75
2022/06/29 02:28:43;;;;;;;0.00;0.00;;;18.60;99.90;;;;;;4993133;28;20022;-74
2022/06/29 02:36:37;;;;;;;0.00;0.00;;;18.40;99.90;;;;;;4993063;28;20417;-74
2022/06/29 02:39:03;;;;;;;0.00;0.00;;;18.50;99.90;;;;;;4992818;28;20022;-75
2022/06/29 02:41:29;;;;;;;0.00;0.00;;;18.50;99.90;;;;;;4993171;28;20042;-75
2022/06/29 02:43:55;;;;;;;0.00;0.00;;;18.70;99.90;;;;;;4991924;28;20034;-74
2022/06/29 02:46:20;;;;;;;0.00;0.00;;;18.60;99.90;;;;;;4991705;28;20398;-75
2022/06/29 02:48:46;;;;;;;0.00;0.00;;;18.60;99.90;;;;;;4992946;28;20062;-75
2022/06/29 02:51:12;;;;;;;0.43;0.43;;;18.60;99.90;;;;;;4992909;28;20022;-74
2022/06/29 02:53:38;;;;;;;0.00;0.00;;;18.50;99.90;;;;;;4992964;28;20026;-73
2022/06/29 02:56:04;;;;;;;0.00;0.00;;;18.40;99.90;;;;;;4992956;28;20026;-74
2022/06/29 02:58:30;;;;;;;0.00;0.00;;;18.60;99.90;;;;;;4991866;28;20030;-75
2022/06/29 03:00:55;;;;;;;0.00;0.00;;;18.60;99.90;;;;;;4975325;28;20044;-74
2022/06/29 03:03:21;;;;;;;0.00;0.00;;;18.70;99.90;;;;;;4991749;28;20026;-75
2022/06/29 03:05:47;;;;;;;0.00;0.00;;;18.80;99.90;;;;;;4992570;28;20034;-75
2022/06/29 03:08:13;;;;;;;0.00;0.00;;;18.60;99.90;;;;;;4991636;28;20505;-74
2022/06/29 03:10:38;;;;;;;0.03;0.03;;;18.40;99.90;;;;;;4995319;28;20466;-74
2022/06/29 03:13:04;;;;;;;0.00;0.00;;;18.40;99.90;;;;;;4997108;28;20105;-74
2022/06/29 03:15:30;;;;;;;0.47;0.47;;;18.30;99.90;;;;;;4995740;28;20097;-75
2022/06/29 03:17:55;;;;;;;0.00;0.00;;;18.40;99.90;;;;;;4995639;28;20482;-75
2022/06/29 03:20:23;;;;;;;0.00;0.00;;;18.60;99.90;;;;;;4995432;28;20034;-75
2022/06/29 03:22:49;;;;;;;0.00;0.00;;;18.70;99.90;;;;;;5008790;23;20038;-74
2022/06/29 03:25:15;;;;;;;0.00;0.00;;;18.70;99.90;;;;;;4996383;28;20041;-75
2022/06/29 03:27:41;;;;;;;0.43;0.43;;;18.70;99.90;;;;;;4996387;28;20030;-75
2022/06/29 03:30:08;;;;;;;0.00;0.00;;;18.60;99.90;;;;;;4994837;28;20030;-75
2022/06/29 03:32:33;;;;;;;0.00;0.00;;;18.50;99.90;;;;;;4995117;28;20023;-75
2022/06/29 03:34:59;;;;;;;0.00;0.00;;;18.50;99.90;;;;;;4996451;28;20052;-75
2022/06/29 03:37:25;;;;;;;0.00;0.00;;;18.50;99.90;;;;;;4995016;28;20496;-75
2022/06/29 03:39:51;;;;;;;0.00;0.00;;;18.50;99.90;;;;;;4995917;28;20057;-75
2022/06/29 03:42:16;;;;;;;0.00;0.00;;;18.50;99.90;;;;;;4996180;28;20062;-75
2022/06/29 03:44:42;;;;;;;0.00;0.00;;;18.40;99.90;;;;;;4996023;28;20037;-75
2022/06/29 03:47:08;;;;;;;0.10;0.10;;;18.40;99.90;;;;;;4996415;28;20076;-75
2022/06/29 03:49:35;;;;;;;0.15;0.15;;;18.40;99.90;;;;;;4995780;28;20033;-75
2022/06/29 03:52:05;;;;;;;0.00;0.00;;;18.50;99.90;;;;;;4995919;28;20014;-76
2022/06/29 03:54:32;;;;;;;0.00;0.00;;;18.50;99.90;;;;;;4996079;28;20043;-74
2022/06/29 03:56:58;;;;;;;0.00;0.00;;;18.40;99.90;;;;;;4994504;28;20429;-74
2022/06/29 03:59:23;;;;;;;0.00;0.00;;;18.50;99.90;;;;;;4995559;28;20018;-74
2022/06/29 04:01:50;;;;;;;0.30;0.28;;;18.40;99.90;;;;;;4996167;28;20367;-74
2022/06/29 04:04:16;;;;;;;0.08;0.08;;;18.50;99.90;;;;;;4995614;28;20109;-74
2022/06/29 04:06:42;;;;;;;0.13;0.13;;;18.50;99.90;;;;;;4995420;28;20062;-74
2022/06/29 04:09:08;;;;;;;0.00;0.00;;;18.40;99.90;;;;;;4995308;28;20046;-74
2022/06/29 04:11:49;;;;;;;0.00;0.00;;;18.30;99.90;;;;;;4995693;28;20097;-74
2022/06/29 04:14:23;;;;;;;0.00;0.00;;;18.30;99.90;;;;;;4994326;28;20426;-74
2022/06/29 04:16:49;;;;;;;0.05;0.05;;;18.50;99.90;;;;;;4994330;28;20027;-74
2022/06/29 04:19:15;;;;;;;0.05;0.05;;;18.50;99.90;;;;;;4994038;28;20368;-74
2022/06/29 04:21:41;;;;;;;0.15;0.15;;;18.40;99.90;;;;;;4994279;28;20097;-74
2022/06/29 04:24:07;;;;;;;0.00;0.00;;;18.40;99.90;;;;;;4995146;28;20057;-74
2022/06/29 04:26:33;;;;;;;0.00;0.00;;;18.20;99.90;;;;;;4993880;28;20117;-74
2022/06/29 04:28:59;;;;;;;0.00;0.00;;;18.30;99.90;;;;;;4995062;28;20110;-74
2022/06/29 04:31:24;;;;;;;0.00;0.00;;;18.40;99.90;;;;;;4995405;28;20077;-74
2022/06/29 04:33:50;;;;;;;0.00;0.00;;;18.50;99.90;;;;;;4995153;28;20109;-74
2022/06/29 04:36:16;;;;;;;0.00;0.00;;;18.50;99.90;;;;;;4993885;28;20191;-74
2022/06/29 04:38:42;;;;;;;0.00;0.00;;;18.60;99.90;;;;;;4994933;28;20242;-75
2022/06/29 04:41:08;;;;;;;0.00;0.00;;;18.50;99.90;;;;;;4994929;28;20034;-75
2022/06/29 04:43:34;;;;;;;0.03;0.03;;;18.60;99.90;;;;;;4994939;28;20047;-75
2022/06/29 04:48:44;;;;;;;0.00;0.00;;;18.40;99.90;;;;;;4994728;28;20030;-75
2022/06/29 04:51:10;;;;;;;0.00;0.00;;;18.40;99.90;;;;;;4994753;28;20402;-76
2022/06/29 04:53:36;;;;;;;0.00;0.00;;;18.30;99.90;;;;;;4995310;28;20466;-77
2022/06/29 04:56:01;;;;;;;0.28;0.28;;;18.30;99.90;;;;;;4993563;28;20033;-77
2022/06/29 04:58:27;;;;;;;0.00;0.00;;;18.50;99.90;;;;;;4993479;28;20482;-77
2022/06/29 05:00:53;;;;;;;0.00;0.00;;;18.60;99.90;;;;;;4977076;28;20033;-77
2022/06/29 05:03:18;;;;;;;0.00;0.00;;;18.70;99.90;;;;;;4994627;28;20037;-77
2022/06/29 05:05:47;;;;;;;0.00;0.00;;;18.60;99.90;;;;;;4994911;28;20030;-75
2022/06/29 05:08:14;;;;;;;0.00;0.00;;;18.60;99.90;;;;;;4994642;28;20015;-73
2022/06/29 05:10:40;;;;;;;0.00;0.00;;;18.70;99.90;;;;;;4993256;28;20022;-73
2022/06/29 05:13:08;;;;;;;0.15;0.08;;;18.70;99.90;;;;;;4993170;28;20025;-73
2022/06/29 05:15:35;;;;;;;0.10;0.10;;;18.60;99.90;;;;;;4994273;28;20058;-74
2022/06/29 05:18:00;;;;;;;0.82;0.75;;;18.60;99.90;;;;;;4976874;28;20030;-74
2022/06/29 05:20:26;;;;;;;0.00;0.00;;;18.60;99.90;;;;;;4994230;28;20030;-74
2022/06/29 05:22:52;;;;;;;0.00;0.00;;;18.60;99.90;;;;;;4993004;28;20088;-73
2022/06/29 05:25:18;;;;;;;0.40;0.30;;;18.60;99.90;;;;;;4994151;28;20474;-73
2022/06/29 05:27:44;;;;;;;0.00;0.00;;;18.40;99.90;;;;;;4989860;28;20036;-73
2022/06/29 05:30:10;;;;;;;0.10;0.10;;;18.30;99.90;;;;;;4985119;28;20541;-74
2022/06/29 05:32:36;;;;;;;0.00;0.00;;;18.30;99.90;;;;;;4990446;28;20527;-74
2022/06/29 05:35:02;;;;;;;0.98;0.88;;;18.50;99.90;;;;;;4993997;28;20026;-74
2022/06/29 05:37:28;;;;;;;0.08;0.08;;;18.30;99.90;;;;;;4975946;28;20031;-73
2022/06/29 05:39:53;;;;;;;0.00;0.00;;;18.20;99.90;;;;;;4973125;28;20502;-74
2022/06/29 05:42:19;;;;;;;0.32;0.28;;;18.00;99.90;;;;;;4974771;28;20479;-74
2022/06/29 05:44:45;;;;;;;0.00;0.00;;;17.90;99.90;;;;;;5003831;23;20072;-75
2022/06/29 05:47:10;;;;;;;0.10;0.10;;;17.90;99.90;;;;;;5033355;28;20033;-74
2022/06/29 05:49:37;;;;;;;0.08;0.08;;;18.00;99.90;;;;;;5024404;28;20014;-75
2022/06/29 05:52:03;;;;;;;0.40;0.40;;;18.10;99.90;;;;;;5011665;28;20022;-76
2022/06/29 05:54:29;;;;;;;0.00;0.00;;;18.10;99.90;;;;;;5003084;28;20034;-75
2022/06/29 05:56:55;;;;;;;0.00;0.00;;;18.20;99.90;;;;;;4993438;28;20382;-75
2022/06/29 05:59:21;;;;;;;0.55;0.55;;;18.30;99.90;;;;;;4976321;28;20030;-75
2022/06/29 06:01:46;;;;;;;0.00;0.00;;;18.30;99.90;;;;;;4999731;28;20036;-75
2022/06/29 06:04:12;;;;;;;0.03;0.03;;;18.40;99.90;;;;;;5013081;28;20108;-75
2022/06/29 06:06:38;;;;;;;0.10;0.10;;;18.40;99.90;;;;;;5012868;28;20026;-75
2022/06/29 06:09:04;;;;;;;0.65;0.65;;;18.30;99.90;;;;;;5012573;28;20080;-74
2022/06/29 06:11:29;;;;;;;0.00;0.00;;;18.20;99.90;;;;;;5012722;28;20413;-75
2022/06/29 06:13:55;;;;;;;0.95;0.95;;;18.20;99.90;;;;;;5013082;28;20022;-75
2022/06/29 06:16:21;;;;;;;0.52;0.32;;;18.30;99.90;;;;;;5011527;28;20104;-74
2022/06/29 06:18:46;;;;;;;0.08;0.08;;;18.10;99.90;;;;;;5012904;28;20037;-74
2022/06/29 06:21:13;;;;;;;0.00;0.00;;;18.00;99.90;;;;;;5011445;28;20034;-75
2022/06/29 06:23:39;;;;;;;0.70;0.70;;;17.90;99.90;;;;;;5011338;28;20381;-75
2022/06/29 06:26:05;;;;;;;0.00;0.00;;;17.80;99.90;;;;;;5009419;28;20072;-75
2022/06/29 06:28:31;;;;;;;0.93;0.68;;;17.90;99.90;;;;;;5009386;28;20388;-75
2022/06/29 06:30:57;;;;;;;0.38;0.20;;;18.00;99.90;;;;;;5010661;28;20026;-74
2022/06/29 06:33:23;;;;;;;0.10;0.10;;;18.00;99.90;;;;;;5010615;28;20029;-76
2022/06/29 06:35:49;;;;;;;0.08;0.08;;;18.30;99.90;;;;;;5005151;28;20025;-75
2022/06/29 06:38:15;;;;;;;1.17;1.00;;;18.40;99.90;;;;;;5004960;28;20473;-75
2022/06/29 06:43:26;;;;;;;0.00;0.00;;;18.60;99.90;;;;;;5008858;28;20026;-75
2022/06/29 06:45:52;;;;;;;0.00;0.00;;;18.80;99.90;;;;;;4991990;28;20041;-75
2022/06/29 06:48:18;;;;;;;0.05;0.05;;;18.90;99.90;;;;;;4992614;28;20540;-75
2022/06/29 06:50:46;;;;;;;0.00;0.00;;;19.00;99.90;;;;;;4990777;28;20386;-75
2022/06/29 06:53:12;;;;;;;0.00;0.00;;;19.00;99.90;;;;;;4989820;28;20390;-75
2022/06/29 06:55:38;;;;;;;0.00;0.00;;;19.20;99.90;;;;;;4991157;28;20026;-75
2022/06/29 06:58:04;;;;;;;2.53;1.95;;;19.20;99.90;;;;;;4992109;28;20055;-75
2022/06/29 07:00:30;;;;;;;0.00;0.00;;;19.40;99.90;;;;;;4993094;28;20133;-76
2022/06/29 07:02:56;;;;;;;0.10;0.10;;;19.40;99.90;;;;;;4992765;28;20465;-76
2022/06/29 07:05:22;;;;;;;0.00;0.00;;;19.40;99.90;;;;;;4992656;28;20113;-77
2022/06/29 07:07:48;;;;;;;0.08;0.08;;;19.40;99.90;;;;;;4992622;28;20034;-76
2022/06/29 07:10:15;;;;;;;0.22;0.22;;;19.40;99.90;;;;;;4993215;28;20026;-77
2022/06/29 07:12:40;;;;;;;0.40;0.40;;;19.40;99.90;;;;;;4992457;28;20077;-76
2022/06/29 07:15:06;;;;;;;2.25;1.60;;;19.30;99.90;;;;;;4992712;28;20437;-77
2022/06/29 07:17:32;;;;;;;1.65;0.55;;;19.30;99.90;;;;;;4993829;28;20029;-77
2022/06/29 07:19:58;;;;;;;0.10;0.10;;;19.40;99.90;;;;;;4998411;28;20041;-77
2022/06/29 07:22:23;;;;;;;0.47;0.47;;;19.70;99.90;;;;;;4997380;28;20110;-78
2022/06/29 07:24:49;;;;;;;2.45;1.85;;;19.90;99.90;;;;;;4998876;28;20026;-77
2022/06/29 07:27:15;;;;;;;1.35;0.88;;;19.90;99.90;;;;;;4996861;28;20018;-78
2022/06/29 07:29:41;;;;;;;2.20;2.00;;;20.10;99.90;;;;;;4999269;28;20023;-77
2022/06/29 07:32:07;;;;;;;0.65;0.65;;;20.30;99.90;;;;;;4997858;28;20019;-77
2022/06/29 07:34:33;;;;;;;3.83;2.55;;;20.50;99.90;;;;;;4981703;28;20026;-77
2022/06/29 07:36:59;;;;;;;0.00;0.00;;;20.30;99.90;;;;;;4981428;28;20034;-77
2022/06/29 07:39:25;;;;;;;0.17;0.15;;;20.30;99.90;;;;;;4999482;28;20058;-78
2022/06/29 07:41:50;;;;;;;2.40;0.70;;;20.50;99.90;;;;;;4981241;28;20090;-77
2022/06/29 07:44:16;;;;;;;0.00;0.00;;;20.40;99.90;;;;;;4993580;28;20034;-76
2022/06/29 07:46:42;;;;;;;1.20;0.90;;;20.30;99.90;;;;;;4992497;28;20378;-76
2022/06/29 07:49:08;;;;;;;0.10;0.10;;;20.30;99.90;;;;;;4991754;28;20038;-76
2022/06/29 07:51:35;;;;;;;0.25;0.25;;;20.40;99.90;;;;;;4992790;28;20019;-76
2022/06/29 07:54:01;;;;;;;0.10;0.10;;;20.50;99.90;;;;;;4991950;28;20026;-76
2022/06/29 07:56:26;;;;;;;0.00;0.00;;;20.60;99.90;;;;;;4993785;28;20030;-76
2022/06/29 07:58:52;;;;;;;0.10;0.10;;;20.60;99.90;;;;;;4995324;28;20062;-76
2022/06/29 08:01:19;;;;;;;0.03;0.03;;;20.40;99.90;;;;;;4978945;28;20057;-76
2022/06/29 08:03:44;;;;;;;0.00;0.00;;;20.30;99.90;;;;;;4996745;28;20029;-77
2022/06/29 08:06:10;;;;;;;0.10;0.10;;;20.50;99.90;;;;;;4997081;28;20023;-76
2022/06/29 08:08:36;;;;;;;0.00;0.00;;;20.60;99.90;;;;;;4997159;28;20026;-75
2022/06/29 08:11:02;;;;;;;1.30;1.20;;;20.60;99.90;;;;;;4996406;28;20029;-76
2022/06/29 08:13:28;;;;;;;0.98;0.90;;;20.10;99.90;;;;;;4995888;28;20026;-76
2022/06/29 08:15:54;;;;;;;0.65;0.57;;;19.90;99.90;;;;;;4995549;28;20027;-77
2022/06/29 08:18:20;;;;;;;1.48;1.35;;;20.10;99.90;;;;;;4995496;28;20026;-75
2022/06/29 08:20:46;;;;;;;0.00;0.00;;;20.00;99.90;;;;;;4995484;28;20049;-79
2022/06/29 08:23:12;;;;;;;0.22;0.22;;;20.10;99.90;;;;;;4995421;28;20490;-72
2022/06/29 08:25:38;;;;;;;0.38;0.38;;;20.20;99.90;;;;;;4977776;28;20030;-73
2022/06/29 08:28:05;;;;;;;0.28;0.28;;;20.20;99.90;;;;;;4995503;28;20058;-73
2022/06/29 08:30:31;;;;;;;1.17;0.50;;;20.10;99.90;;;;;;4995366;28;20022;-73
2022/06/29 08:32:58;;;;;;;0.20;0.20;;;20.10;99.90;;;;;;4995563;28;20041;-74
2022/06/29 08:35:23;;;;;;;0.65;0.65;;;20.20;99.90;;;;;;4994316;28;20034;-73
2022/06/29 08:37:50;;;;;;;0.00;0.00;;;20.40;99.90;;;;;;4994232;28;20022;-73
2022/06/29 08:40:17;;;;;;;0.00;0.00;;;20.40;99.90;;;;;;4995417;28;20033;-74
2022/06/29 08:42:46;;;;;;;0.00;0.00;;;20.60;99.90;;;;;;4995407;28;20054;-74
2022/06/29 08:45:13;;;;;;;0.00;0.00;;;20.60;99.90;;;;;;4993979;28;20032;-73
2022/06/29 08:47:41;;;;;;;0.00;0.00;;;20.80;99.90;;;;;;4993766;28;20018;-73
2022/06/29 08:50:09;;;;;;;1.15;1.05;;;20.90;99.90;;;;;;4995045;28;20026;-73
2022/06/29 08:52:36;;;;;;;0.68;0.50;;;21.10;99.90;;;;;;4995005;28;20022;-73
2022/06/29 08:55:04;;;;;;;0.30;0.30;;;21.10;99.90;;;;;;4995050;28;20039;-73
2022/06/29 08:57:30;;;;;;;0.10;0.10;;;21.20;99.90;;;;;;4994939;28;20019;-74
2022/06/29 08:59:56;;;;;;;2.85;0.35;;;21.40;99.90;;;;;;5005635;28;20022;-74
2022/06/29 09:02:22;;;;;;;0.40;0.22;;;21.50;99.90;;;;;;5014478;28;20033;-72
2022/06/29 09:04:48;;;;;;;0.00;0.00;;;21.70;99.90;;;;;;5014524;28;20022;-74
2022/06/29 09:07:14;;;;;;;0.00;0.00;;;21.80;99.90;;;;;;5012516;28;20478;-73
2022/06/29 09:10:01;;;;;;;0.17;0.17;;;21.90;99.90;;;;;;5014196;28;20045;-73
2022/06/29 09:12:28;;;;;;;0.00;0.00;;;22.00;99.90;;;;;;5014366;28;20026;-73
2022/06/29 09:14:54;;;;;;;0.10;0.10;;;21.70;99.90;;;;;;4998218;28;20029;-74
2022/06/29 09:17:20;;;;;;;2.10;0.75;;;21.70;99.90;;;;;;4994323;28;20034;-74
2022/06/29 09:19:47;;;;;;;0.52;0.52;;;21.70;99.90;;;;;;5009995;28;20022;-73
2022/06/29 09:22:13;;;;;;;0.10;0.10;;;21.80;99.90;;;;;;5014010;28;20100;-74
2022/06/29 09:24:40;;;;;;;0.20;0.20;;;21.70;99.90;;;;;;5037013;23;20082;-92
2022/06/29 09:27:08;;;;;;;0.10;0.10;;;21.40;99.90;;;;;;4997270;28;20026;-92
2022/06/29 09:29:41;;;;;;;0.00;0.00;;;21.50;99.90;;;;;;4996824;28;20076;-91
2022/06/29 09:32:19;;;;;;;0.30;0.30;;;21.70;99.90;;;;;;4997360;28;20083;-92
2022/06/29 09:34:50;;;;;;;0.10;0.10;;;21.80;99.90;;;;;;4997700;28;20010;-92
2022/06/29 09:37:17;;;;;;;11.65;2.30;;;21.60;99.90;;;;;;4997390;28;20053;-91
2022/06/29 09:39:47;;;;;;;0.00;0.00;;;21.80;99.90;;;;;;4996422;28;20007;-92
2022/06/29 09:42:24;;;;;;;0.60;0.60;;;21.90;99.90;;;;;;4996744;28;20526;-91
2022/06/29 09:44:53;;;;;;;0.00;0.00;;;21.90;99.90;;;;;;5000167;28;20019;-91
2022/06/29 09:47:20;;;;;;;2.08;1.98;;;21.80;99.90;;;;;;4999660;28;20019;-90
2022/06/29 09:49:57;;;;;;;0.10;0.10;;;21.90;99.90;;;;;;4999435;28;20103;-91
2022/06/29 09:52:28;;;;;;;0.00;0.00;;;21.80;99.90;;;;;;4999128;28;20031;-91
2022/06/29 09:54:56;;;;;;;0.10;0.10;;;21.90;99.90;;;;;;4997904;28;20037;-91
2022/06/29 09:57:33;;;;;;;0.10;0.10;;;21.90;99.90;;;;;;4999287;28;20038;-91
2022/06/29 10:03:11;;;;;;;0.00;0.00;;;22.00;99.90;;;;;;5016103;28;20015;-91
2022/06/29 10:06:04;;;;;;;20.00;1.48;;;22.10;99.90;;;;;;5001893;28;20074;-91
2022/06/29 10:08:32;;;;;;;0.00;0.00;;;21.90;99.90;;;;;;4982054;28;20078;-91
2022/06/29 10:13:39;;;;;;;0.93;0.82;;;21.80;99.90;;;;;;4982170;28;20015;-91
2022/06/29 10:14:00;;;;;;;0.63;0.43;;;21.60;99.90;;;;;;4997602;28;20015;-89
2022/06/29 10:16:56;;;;;;;0.20;0.20;;;21.60;99.90;;;;;;4981868;28;20095;-90
2022/06/29 10:19:25;;;;;;;0.03;0.03;;;21.50;99.90;;;;;;4979748;23;20058;-73
2022/06/29 10:21:50;;;;;;;0.10;0.10;;;21.60;99.90;;;;;;4973952;28;20049;-73
2022/06/29 10:24:17;;;;;;;0.00;0.00;;;21.70;99.90;;;;;;4975167;28;20027;-73
2022/06/29 10:26:45;;;;;;;0.00;0.00;;;21.60;99.90;;;;;;4974912;28;20110;-73
2022/06/29 10:29:22;;;;;;;0.00;0.00;;;21.80;99.90;;;;;;4972397;28;20288;-73
2022/06/29 10:31:51;;;;;;;0.10;0.10;;;21.80;99.90;;;;;;4973795;28;20022;-73
2022/06/29 10:34:32;;;;;;;0.93;0.70;;;21.80;99.90;;;;;;4973455;28;20023;-73
2022/06/29 10:37:11;;;;;;;2.80;2.60;;;21.70;99.90;;;;;;4972589;28;20113;-73
2022/06/29 10:39:45;;;;;;;0.00;0.00;;;21.90;99.90;;;;;;4973253;28;20309;-73
2022/06/29 10:45:18;;;;;;;0.00;0.00;;;22.40;99.90;;;;;;4973453;28;20038;-73
2022/06/29 10:47:45;;;;;;;0.00;0.00;;;22.40;99.90;;;;;;4973256;28;20086;-73
2022/06/29 10:50:18;;;;;;;1.25;1.10;;;22.50;99.90;;;;;;4964885;28;20020;-73
2022/06/29 10:52:44;;;;;;;2.13;0.57;;;22.30;99.90;;;;;;4952759;29;20015;-73
2022/06/29 10:55:11;;;;;;;0.00;0.00;;;22.40;99.90;;;;;;4953867;28;20031;-73
2022/06/29 10:57:39;;;;;;;0.00;0.00;;;22.40;99.90;;;;;;4953887;28;20031;-73
2022/06/29 11:00:09;;;;;;;0.00;0.00;;;22.70;99.90;;;;;;4953678;28;20070;-73
2022/06/29 11:02:38;;;;;;;1.20;0.63;;;22.90;99.90;;;;;;4952742;29;20027;-73
2022/06/29 11:05:04;;;;;;;0.13;0.13;;;23.20;99.90;;;;;;4954207;28;20061;-73
2022/06/29 11:12:59;;;;;;;0.00;0.00;;;24.20;99.90;;;;;;4954021;28;20685;-73
2022/06/29 11:18:15;;;;;;;4.65;1.60;;;24.00;99.90;;;;;;4953671;28;20039;-73
2022/06/29 11:20:45;;;;;;;0.32;0.32;;;24.00;99.90;;;;;;4953579;28;20035;-73
2022/06/29 11:23:16;;;;;;;0.00;0.00;;;23.70;99.90;;;;;;4954302;28;20070;-73
2022/06/29 11:25:45;;;;;;;5.50;2.13;;;23.70;99.90;;;;;;4952446;29;20543;-73
2022/06/29 11:28:13;;;;;;;0.00;0.00;;;23.50;99.90;;;;;;4954202;28;20276;-73
2022/06/29 11:30:39;;;;;;;2.78;1.40;;;23.30;99.90;;;;;;4953819;28;20027;-73
2022/06/29 11:33:12;;;;;;;1.55;1.23;;;23.20;99.90;;;;;;4956292;29;20550;-72
2022/06/29 11:35:42;;;;;;;0.00;0.00;;;23.20;99.90;;;;;;4957826;28;20027;-72
2022/06/29 11:38:08;;;;;;;0.45;0.45;;;23.30;99.90;;;;;;4971715;28;20118;-73
2022/06/29 11:40:43;;;;;;;0.10;0.10;;;23.30;99.90;;;;;;4959453;28;20034;-72
2022/06/29 11:43:18;;;;;;;0.00;0.00;;;23.20;99.90;;;;;;4976670;28;20482;-73
2022/06/29 11:45:52;;;;;;;0.00;0.00;;;23.20;99.90;;;;;;4976405;28;20393;-73
2022/06/29 11:48:26;;;;;;;0.00;0.00;;;23.20;99.90;;;;;;4976667;28;20526;-72
2022/06/29 11:51:00;;;;;;;0.00;0.00;;;23.20;99.90;;;;;;4975251;28;20030;-73
2022/06/29 11:53:36;;;;;;;0.00;0.00;;;23.20;99.90;;;;;;4976525;28;20027;-72
2022/06/29 11:56:27;;;;;;;1.00;0.38;;;23.30;99.90;;;;;;4976360;28;20038;-73
2022/06/29 11:58:56;;;;;;;0.00;0.00;;;23.40;99.90;;;;;;4976370;28;20030;-73
2022/06/29 12:01:25;;;;;;;0.08;0.08;;;23.50;99.90;;;;;;4975102;28;20038;-76
2022/06/29 12:03:56;;;;;;;0.00;0.00;;;23.80;99.90;;;;;;4974868;28;20106;-72
2022/06/29 12:06:24;;;;;;;0.00;0.00;;;23.90;99.90;;;;;;4974999;28;20030;-73
2022/06/29 12:08:54;;;;;;;0.00;0.00;;;24.20;99.90;;;;;;4976454;28;20042;-73
2022/06/29 12:11:20;;;;;;;0.00;0.00;;;24.70;99.90;;;;;;4991498;28;20078;-73
2022/06/29 12:13:46;;;;;;;0.73;0.57;;;24.90;99.90;;;;;;4974948;28;20023;-73
2022/06/29 12:16:13;;;;;;;0.00;0.00;;;24.90;99.90;;;;;;4974933;28;20031;-73
2022/06/29 12:18:39;;;;;;;0.00;0.00;;;24.90;99.90;;;;;;4958286;28;20517;-73
2022/06/29 12:21:05;;;;;;;0.13;0.13;;;24.80;99.90;;;;;;4976114;28;20027;-73
2022/06/29 12:23:31;;;;;;;0.10;0.10;;;24.70;99.90;;;;;;4976063;28;20521;-72
2022/06/29 12:26:01;;;;;;;0.08;0.08;;;24.30;99.90;;;;;;4975974;28;20055;-72
2022/06/29 12:28:27;;;;;;;2.38;2.17;;;24.10;99.90;;;;;;4974778;28;20407;-73
2022/06/29 12:30:53;;;;;;;0.00;0.00;;;23.90;99.90;;;;;;4975886;28;20015;-73
2022/06/29 12:33:20;;;;;;;0.00;0.00;;;23.60;99.90;;;;;;4975894;28;20207;-72
2022/06/29 12:35:46;;;;;;;0.00;0.00;;;23.50;99.90;;;;;;4974316;28;20030;-72
2022/06/29 12:38:12;;;;;;;0.38;0.38;;;23.60;99.90;;;;;;4975781;28;20073;-72
2022/06/29 12:40:38;;;;;;;2.72;1.75;;;23.60;99.90;;;;;;4973985;28;20030;-72
2022/06/29 12:43:05;;;;;;;0.00;0.00;;;23.60;99.90;;;;;;4973743;28;20038;-72
2022/06/29 12:45:31;;;;;;;0.00;0.00;;;23.40;99.90;;;;;;4975535;28;20502;-72
2022/06/29 12:47:57;;;;;;;0.20;0.20;;;23.40;99.90;;;;;;4975296;28;20023;-72
2022/06/29 12:50:23;;;;;;;0.00;0.00;;;23.50;99.90;;;;;;4975106;28;20438;-73
2022/06/29 12:52:50;;;;;;;0.45;0.45;;;23.70;99.90;;;;;;4974407;28;20030;-74
2022/06/29 12:55:18;;;;;;;0.30;0.30;;;23.80;99.90;;;;;;4963752;28;20023;-71
2022/06/29 12:57:44;;;;;;;0.00;0.00;;;23.70;99.90;;;;;;4949170;28;20027;-72
2022/06/29 13:00:12;;;;;;;0.20;0.20;;;23.70;99.90;;;;;;4965729;28;20078;-72
2022/06/29 13:02:38;;;;;;;0.00;0.00;;;23.70;99.90;;;;;;4963333;28;20083;-72
2022/06/29 13:05:05;;;;;;;0.30;0.30;;;23.50;99.90;;;;;;4963870;28;20028;-72
2022/06/29 13:07:32;;;;;;;0.10;0.10;;;23.60;99.90;;;;;;4983593;28;20027;-72
2022/06/29 13:09:58;;;;;;;0.00;0.00;;;23.50;99.90;;;;;;4965378;28;20102;-72
2022/06/29 13:12:25;;;;;;;0.00;0.00;;;23.60;99.90;;;;;;4968701;28;20529;-71
2022/06/29 13:14:52;;;;;;;0.00;0.00;;;23.60;99.90;;;;;;4965992;28;20015;-71